MMHO/HMO METAR and TAF weather

Enter ICAO airport designator
Station Type Date Time Source
MMHO METAR 2018/12/15 20:40 UTC NOAA

MMHO 152040Z 25004KT 10SM BKN080 OVC100 21/M04 A3002 RMK SLP170 57021 980 8/07/


Station Type Date Time Source
MMHO Decoded METAR 2018/12/15 20:40 UTC NOAA

Hermosillo, Son., Mexico (MMHO) 29-04N 110-57W
Dec 15, 2018 - 03:40 PM EST / 2018.12.15 2040 UTC
Wind: from the WSW (250 degrees) at 5 MPH (4 KT):0
Visibility: 10 mile(s):0
Sky conditions: overcast
Temperature: 69 F (21 C)
Dew Point: 24 F (-4 C)
Relative Humidity: 18%
Pressure (altimeter): 30.02 in. Hg (1016 hPa)
Pressure tendency: 0.06 inches (2.1 hPa) lower than three hours ago
ob: MMHO 152040Z 25004KT 10SM BKN080 OVC100 21/M04 A3002 RMK SLP170 57021 980 8/07/
cycle: 20

Station Type Date Time Source
MMHO TAF 2018/12/15 18:33 UTC NOAA

TAF MMHO 151628Z 1518/1618 10005KT P6SM BKN080 OVC100
BECMG 1603/1604 07005KT
FM161700 13010KT P6SM BKN250


Example: see airport list